createdAt,value
2023-02-14T00:01:32.106Z,45.53
2023-02-14T00:04:02.107Z,43.93
2023-02-14T00:06:35.621Z,55.93
2023-02-14T00:09:06.166Z,63.93
2023-02-14T00:11:36.632Z,46.87
2023-02-14T00:14:19.663Z,58.90
2023-02-14T00:16:49.923Z,57.77
2023-02-14T00:19:22.555Z,53.03
2023-02-14T00:21:55.370Z,46.47
2023-02-14T00:24:27.994Z,57.70
2023-02-14T00:26:58.427Z,65.90
2023-02-14T00:29:31.137Z,57.53
2023-02-14T00:32:01.448Z,39.77
2023-02-14T00:34:33.410Z,49.87
2023-02-14T00:37:06.454Z,46.43
2023-02-14T00:39:36.386Z,55.97
2023-02-14T00:42:09.457Z,54.80
2023-02-14T00:44:39.456Z,39.07
2023-02-14T00:47:09.886Z,51.00
2023-02-14T00:49:39.936Z,44.80
2023-02-14T00:52:12.557Z,61.23
2023-02-14T00:54:42.519Z,54.10
2023-02-14T00:57:12.507Z,56.40
2023-02-14T00:59:42.447Z,53.97
2023-02-14T01:02:12.454Z,45.93
2023-02-14T01:04:42.432Z,51.57
2023-02-14T01:07:15.022Z,50.77
2023-02-14T01:09:45.348Z,46.87
2023-02-14T01:12:15.310Z,53.53
2023-02-14T01:14:45.725Z,59.60
2023-02-14T01:17:15.713Z,44.83
2023-02-14T01:19:45.775Z,47.87
2023-02-14T01:22:18.450Z,46.10
2023-02-14T01:24:48.674Z,58.07
2023-02-14T01:27:18.648Z,46.03
2023-02-14T01:29:50.060Z,53.33
2023-02-14T01:32:22.189Z,54.53
2023-02-14T01:34:53.663Z,49.23
2023-02-14T01:37:26.453Z,49.97
2023-02-14T01:39:56.696Z,63.13
2023-02-14T01:42:26.696Z,58.80
2023-02-14T01:45:04.267Z,59.87
2023-02-14T01:47:41.628Z,48.10
2023-02-14T01:50:17.412Z,53.83
2023-02-14T01:52:53.709Z,58.80
2023-02-14T01:55:31.164Z,49.57
2023-02-14T01:58:07.616Z,53.70
2023-02-14T02:00:52.169Z,59.30
2023-02-14T02:03:24.648Z,61.33
2023-02-14T02:06:06.224Z,70.40
2023-02-14T02:08:45.862Z,51.23
2023-02-14T02:11:15.955Z,55.33
2023-02-14T02:13:45.914Z,74.87
2023-02-14T02:16:53.744Z,50.73
2023-02-14T02:20:28.683Z,57.53
2023-02-14T02:23:53.617Z,51.67
2023-02-14T02:27:01.727Z,55.00
2023-02-14T02:30:22.494Z,58.87
2023-02-14T02:33:44.388Z,52.23
2023-02-14T02:36:43.791Z,50.50
2023-02-14T02:39:32.825Z,66.67
2023-02-14T02:42:19.195Z,41.80
2023-02-14T02:45:04.623Z,49.90
2023-02-14T02:47:41.718Z,61.50
2023-02-14T02:50:38.534Z,68.80
2023-02-14T02:53:23.810Z,54.53
2023-02-14T02:56:14.577Z,54.53
2023-02-14T02:58:52.084Z,52.53
2023-02-14T03:01:27.300Z,45.77
2023-02-14T03:04:17.937Z,56.13
2023-02-14T03:06:48.419Z,56.90
2023-02-14T03:09:59.849Z,54.63
2023-02-14T03:13:34.921Z,62.23
2023-02-14T03:16:36.732Z,45.67
2023-02-14T03:20:02.441Z,54.33
2023-02-14T03:22:51.590Z,48.70
2023-02-14T03:25:43.235Z,52.47
2023-02-14T03:28:22.722Z,62.90
2023-02-14T03:31:05.045Z,55.70
2023-02-14T03:33:46.361Z,41.80
2023-02-14T03:36:23.765Z,63.07
2023-02-14T03:39:02.786Z,53.17
2023-02-14T03:41:45.365Z,59.57
2023-02-14T03:44:22.537Z,50.80
2023-02-14T03:46:59.045Z,40.80
2023-02-14T03:49:36.291Z,49.63
2023-02-14T03:52:10.288Z,66.80
2023-02-14T03:54:40.949Z,60.53
2023-02-14T03:57:22.620Z,66.47
2023-02-14T03:59:53.547Z,84.97
2023-02-14T04:02:30.758Z,70.57
2023-02-14T04:05:04.372Z,56.63
2023-02-14T04:07:34.341Z,62.13
2023-02-14T04:10:04.308Z,58.17
2023-02-14T04:12:38.188Z,56.73
2023-02-14T04:15:10.402Z,49.80
2023-02-14T04:18:05.086Z,58.80
2023-02-14T04:20:35.000Z,62.93
2023-02-14T04:23:04.946Z,57.43
2023-02-14T04:25:34.915Z,43.73
2023-02-14T04:28:07.999Z,46.47
2023-02-14T04:30:37.956Z,61.27
2023-02-14T04:33:08.325Z,69.07
2023-02-14T04:35:38.354Z,54.93
2023-02-14T04:38:09.016Z,64.10
2023-02-14T04:40:39.035Z,56.77
2023-02-14T04:43:11.580Z,61.13
2023-02-14T04:45:41.545Z,70.03
2023-02-14T04:48:11.564Z,62.23
2023-02-14T04:50:41.694Z,56.10
2023-02-14T04:53:11.673Z,59.97
2023-02-14T04:55:41.681Z,50.30
2023-02-14T04:58:14.189Z,45.23
2023-02-14T05:00:44.235Z,54.77
2023-02-14T05:03:14.285Z,55.90
2023-02-14T05:05:44.207Z,46.90
2023-02-14T05:08:14.465Z,56.30
2023-02-14T05:10:45.220Z,58.70
2023-02-14T05:13:18.160Z,50.37
2023-02-14T05:15:48.626Z,51.73
2023-02-14T05:18:18.571Z,40.80
2023-02-14T05:20:48.546Z,50.77
2023-02-14T05:23:18.656Z,48.77
2023-02-14T05:25:51.786Z,51.70
2023-02-14T05:28:24.373Z,42.03
2023-02-14T05:30:56.919Z,54.40
2023-02-14T05:33:27.466Z,41.70
2023-02-14T05:35:57.420Z,45.47
2023-02-14T05:38:27.366Z,49.90
2023-02-14T05:40:57.928Z,49.30
2023-02-14T05:43:30.868Z,43.57
2023-02-14T05:46:01.353Z,64.50
2023-02-14T05:48:31.376Z,59.17
2023-02-14T05:51:07.386Z,64.67
2023-02-14T05:53:38.390Z,47.10
2023-02-14T05:56:09.429Z,55.03
2023-02-14T05:58:41.972Z,52.43
2023-02-14T06:01:11.900Z,45.97
2023-02-14T06:03:41.836Z,53.30
2023-02-14T06:06:11.796Z,59.80
2023-02-14T06:08:41.807Z,56.80
2023-02-14T06:11:11.792Z,72.93
2023-02-14T06:13:44.355Z,63.03
2023-02-14T06:16:14.334Z,78.57
2023-02-14T06:18:44.322Z,66.23
2023-02-14T06:21:14.314Z,65.47
2023-02-14T06:23:44.246Z,70.57
2023-02-14T06:26:14.190Z,59.87
2023-02-14T06:28:46.751Z,70.47
2023-02-14T06:31:20.958Z,63.70
2023-02-14T06:33:51.030Z,59.93
2023-02-14T06:36:21.914Z,61.43
2023-02-14T06:38:52.677Z,60.10
2023-02-14T06:41:22.729Z,63.10
2023-02-14T06:43:55.379Z,46.20
2023-02-14T06:46:25.544Z,49.53
2023-02-14T06:48:55.592Z,52.23
2023-02-14T06:51:25.562Z,50.17
2023-02-14T06:53:55.488Z,57.57
2023-02-14T06:56:25.533Z,58.37
2023-02-14T06:58:58.083Z,44.27
2023-02-14T07:01:28.168Z,62.73
2023-02-14T07:03:58.211Z,58.03
2023-02-14T07:06:28.547Z,58.20
2023-02-14T07:08:58.578Z,61.13
2023-02-14T07:11:28.730Z,51.03
2023-02-14T07:14:01.312Z,49.17
2023-02-14T07:16:31.387Z,72.67
2023-02-14T07:19:01.293Z,69.23
2023-02-14T07:21:31.302Z,47.77
2023-02-14T07:24:01.317Z,56.27
2023-02-14T07:26:31.299Z,41.00
2023-02-14T07:29:03.812Z,54.23
2023-02-14T07:31:33.901Z,58.57
2023-02-14T07:34:04.063Z,46.80
2023-02-14T07:36:33.983Z,48.37
2023-02-14T07:39:03.885Z,53.63
2023-02-14T07:41:33.865Z,68.20
2023-02-14T07:44:06.539Z,54.80
2023-02-14T07:46:36.509Z,55.30
2023-02-14T07:49:06.684Z,69.67
2023-02-14T07:51:36.755Z,53.00
2023-02-14T07:54:07.091Z,51.20
2023-02-14T07:56:37.368Z,67.00
2023-02-14T07:59:09.939Z,66.73
2023-02-14T08:01:40.002Z,66.20
2023-02-14T08:04:10.097Z,50.90
2023-02-14T08:06:40.034Z,63.70
2023-02-14T08:09:10.251Z,54.43
2023-02-14T08:12:01.792Z,41.90
2023-02-14T08:14:34.343Z,61.67
2023-02-14T08:17:04.539Z,62.40
2023-02-14T08:19:34.615Z,50.43
2023-02-14T08:22:04.757Z,60.73
2023-02-14T08:24:35.496Z,57.03
2023-02-14T08:27:05.774Z,56.17
2023-02-14T08:29:38.516Z,47.27
2023-02-14T08:32:08.773Z,50.53
2023-02-14T08:34:38.959Z,49.47
2023-02-14T08:37:08.921Z,48.10
2023-02-14T08:39:38.844Z,65.67
2023-02-14T08:42:09.239Z,51.80
2023-02-14T08:44:41.735Z,58.20
2023-02-14T08:47:11.758Z,57.27
2023-02-14T08:49:41.883Z,69.33
2023-02-14T08:52:12.475Z,78.00
2023-02-14T08:54:42.572Z,61.00
2023-02-14T08:57:12.929Z,55.27
2023-02-14T08:59:45.934Z,52.30
2023-02-14T09:02:16.838Z,50.50
2023-02-14T09:04:46.794Z,51.67
2023-02-14T09:07:17.398Z,51.87
2023-02-14T09:09:47.416Z,44.70
2023-02-14T09:12:17.495Z,52.63
2023-02-14T09:14:50.035Z,53.07
2023-02-14T09:17:21.046Z,54.40
2023-02-14T09:19:51.030Z,63.87
2023-02-14T09:22:23.053Z,58.63
2023-02-14T09:24:53.084Z,56.43
2023-02-14T09:27:23.070Z,48.10
2023-02-14T09:29:55.931Z,56.30
2023-02-14T09:32:26.600Z,56.10
2023-02-14T09:34:56.744Z,48.37
2023-02-14T09:37:39.333Z,47.30
2023-02-14T09:40:11.498Z,49.30
2023-02-14T09:42:58.420Z,46.50
2023-02-14T09:45:36.008Z,42.40
2023-02-14T09:48:13.494Z,48.33
2023-02-14T09:50:50.041Z,43.40
2023-02-14T09:53:28.182Z,46.30
2023-02-14T09:56:12.912Z,36.27
2023-02-14T09:58:55.968Z,48.23
2023-02-14T10:01:35.683Z,44.53
2023-02-14T10:04:23.854Z,40.07
2023-02-14T10:07:00.068Z,43.17
2023-02-14T10:10:05.014Z,38.60
2023-02-14T10:12:42.765Z,37.10
2023-02-14T10:15:21.937Z,41.40
2023-02-14T10:18:00.861Z,34.67
2023-02-14T10:20:35.028Z,32.93
2023-02-14T10:23:14.534Z,39.40
2023-02-14T10:25:55.765Z,34.80
2023-02-14T10:28:34.360Z,29.07
2023-02-14T10:31:24.144Z,34.07
2023-02-14T10:34:04.231Z,29.80
2023-02-14T10:37:03.411Z,35.33
2023-02-14T10:40:08.470Z,30.97
2023-02-14T10:42:53.326Z,31.43
2023-02-14T10:45:34.664Z,30.77
2023-02-14T10:48:19.352Z,23.63
2023-02-14T10:51:03.646Z,24.90
2023-02-14T10:53:50.433Z,38.77
2023-02-14T10:56:27.009Z,27.20
2023-02-14T10:59:00.486Z,37.80
2023-02-14T11:01:31.992Z,28.20
2023-02-14T11:04:08.747Z,33.13
2023-02-14T11:06:41.411Z,28.83
2023-02-14T11:09:13.674Z,24.83
2023-02-14T11:11:51.253Z,33.33
2023-02-14T11:14:32.414Z,28.23
2023-02-14T11:17:22.771Z,32.63
2023-02-14T11:20:02.510Z,29.17
2023-02-14T11:22:37.314Z,33.30
2023-02-14T11:25:10.338Z,29.83
2023-02-14T11:27:40.799Z,32.23
2023-02-14T11:30:25.074Z,29.90
2023-02-14T11:32:56.397Z,34.83
2023-02-14T11:35:34.543Z,28.40
2023-02-14T11:38:24.597Z,29.87
2023-02-14T11:41:00.209Z,32.53
2023-02-14T11:43:36.596Z,25.50
2023-02-14T11:46:51.068Z,28.43
2023-02-14T11:49:33.323Z,31.10
2023-02-14T11:52:12.468Z,34.70
2023-02-14T11:54:48.393Z,26.13
2023-02-14T11:57:28.804Z,27.50
2023-02-14T12:00:01.863Z,35.53
2023-02-14T12:02:46.597Z,28.90
2023-02-14T12:05:23.866Z,31.17
2023-02-14T12:07:57.045Z,23.07
2023-02-14T12:10:32.401Z,24.40
2023-02-14T12:13:06.188Z,23.73
2023-02-14T12:15:40.910Z,23.03
2023-02-14T12:18:51.578Z,23.47
2023-02-14T12:21:46.953Z,24.43
2023-02-14T12:24:29.017Z,33.07
2023-02-14T12:27:17.299Z,25.43
2023-02-14T12:29:54.029Z,29.50
2023-02-14T12:32:28.308Z,27.60
2023-02-14T12:35:06.257Z,29.63
2023-02-14T12:38:04.772Z,27.63
2023-02-14T12:40:51.909Z,28.03
2023-02-14T12:43:50.870Z,25.70
2023-02-14T12:47:05.740Z,28.57
2023-02-14T12:50:17.222Z,32.63
2023-02-14T12:53:22.970Z,26.63
2023-02-14T12:56:06.607Z,29.77
2023-02-14T12:58:57.434Z,29.27
2023-02-14T13:02:22.870Z,22.00
2023-02-14T13:05:06.402Z,32.37
2023-02-14T13:08:03.371Z,28.57
2023-02-14T13:10:52.679Z,26.63
2023-02-14T13:13:39.894Z,28.93
2023-02-14T13:16:25.467Z,29.03
2023-02-14T13:19:05.432Z,25.53
2023-02-14T13:21:41.269Z,21.37
2023-02-14T13:24:22.513Z,36.80
2023-02-14T13:26:59.262Z,24.57
2023-02-14T13:29:39.684Z,27.00
2023-02-14T13:32:18.339Z,28.57
2023-02-14T13:34:51.754Z,24.20
2023-02-14T13:37:27.510Z,29.50
2023-02-14T13:40:02.477Z,23.70
2023-02-14T13:43:00.131Z,30.77
2023-02-14T13:45:58.334Z,26.13
2023-02-14T13:48:32.237Z,18.97
2023-02-14T13:51:04.756Z,25.63
2023-02-14T13:53:44.140Z,39.40
2023-02-14T13:56:37.660Z,26.70
2023-02-14T13:59:09.185Z,32.50
2023-02-14T14:01:48.063Z,25.63
2023-02-14T14:04:40.307Z,28.57
2023-02-14T14:07:30.155Z,27.20
2023-02-14T14:10:09.001Z,25.53
2023-02-14T14:12:48.004Z,35.73
2023-02-14T14:15:27.315Z,26.30
2023-02-14T14:18:34.564Z,34.83
2023-02-14T14:21:19.286Z,28.77
2023-02-14T14:24:20.271Z,30.00
2023-02-14T14:26:53.277Z,29.50
2023-02-14T14:29:28.488Z,30.03
2023-02-14T14:31:59.079Z,30.33
2023-02-14T14:34:31.146Z,29.83
2023-02-14T14:37:10.848Z,31.23
2023-02-14T14:39:41.055Z,33.37
2023-02-14T14:42:17.588Z,37.63
2023-02-14T14:44:52.906Z,29.77
2023-02-14T14:47:27.162Z,31.57
2023-02-14T14:50:07.427Z,27.43
2023-02-14T14:52:45.693Z,37.30
2023-02-14T14:55:23.876Z,29.77
2023-02-14T14:57:57.623Z,30.83
2023-02-14T15:00:33.422Z,27.80
2023-02-14T15:03:09.415Z,35.83
2023-02-14T15:05:42.096Z,37.27
2023-02-14T15:08:25.570Z,31.33
2023-02-14T15:11:02.542Z,31.57
2023-02-14T15:13:49.647Z,32.47
2023-02-14T15:16:27.786Z,31.27
2023-02-14T15:19:03.597Z,30.03
2023-02-14T15:21:34.764Z,30.83
2023-02-14T15:24:08.603Z,27.40
2023-02-14T15:26:39.212Z,33.27
2023-02-14T15:29:10.309Z,30.30
2023-02-14T15:31:44.001Z,27.43
2023-02-14T15:34:16.320Z,37.70
2023-02-14T15:36:49.097Z,31.50
2023-02-14T15:39:25.487Z,34.60
2023-02-14T15:41:58.204Z,28.13
2023-02-14T15:44:29.801Z,35.80
2023-02-14T15:47:05.611Z,30.97
2023-02-14T15:49:41.280Z,30.97
2023-02-14T15:52:16.863Z,34.63
2023-02-14T15:54:51.037Z,30.97
2023-02-14T15:57:29.702Z,27.00
2023-02-14T15:59:59.985Z,35.63
2023-02-14T16:02:38.002Z,35.50
2023-02-14T16:05:18.453Z,29.27
2023-02-14T16:08:03.561Z,36.17
2023-02-14T16:10:38.584Z,39.13
2023-02-14T16:13:21.358Z,35.57
2023-02-14T16:16:02.133Z,34.10
2023-02-14T16:18:40.036Z,33.90
2023-02-14T16:21:17.095Z,33.20
2023-02-14T16:23:49.117Z,36.07
2023-02-14T16:26:21.761Z,28.90
2023-02-14T16:28:51.720Z,31.90
2023-02-14T16:31:22.334Z,33.17
2023-02-14T16:33:52.488Z,34.73
2023-02-14T16:36:28.807Z,36.27
2023-02-14T16:39:00.088Z,33.97
2023-02-14T16:41:35.872Z,31.27
2023-02-14T16:44:06.988Z,31.17
2023-02-14T16:46:39.100Z,35.00
2023-02-14T16:49:10.563Z,36.47
2023-02-14T16:51:42.723Z,37.57
2023-02-14T16:54:20.555Z,35.97
2023-02-14T16:56:59.646Z,36.13
2023-02-14T16:59:30.016Z,31.30
2023-02-14T17:02:02.282Z,35.33
2023-02-14T17:04:32.362Z,32.77
2023-02-14T17:07:06.849Z,32.10
2023-02-14T17:09:44.268Z,35.37
2023-02-14T17:12:23.570Z,39.90
2023-02-14T17:15:01.368Z,35.57
2023-02-14T17:17:32.752Z,45.37
2023-02-14T17:20:03.930Z,45.73
2023-02-14T17:22:34.537Z,37.53
2023-02-14T17:25:05.409Z,44.20
2023-02-14T17:27:38.636Z,42.53
2023-02-14T17:30:10.978Z,33.43
2023-02-14T17:32:41.019Z,32.80
2023-02-14T17:35:12.114Z,34.87
2023-02-14T17:37:42.105Z,36.97
2023-02-14T17:40:14.620Z,40.53
2023-02-14T17:42:47.343Z,31.50
2023-02-14T17:45:17.336Z,35.20
2023-02-14T17:47:47.486Z,36.83
2023-02-14T17:50:18.554Z,39.07
2023-02-14T17:52:48.477Z,44.10
2023-02-14T17:55:18.832Z,40.50
2023-02-14T17:57:52.561Z,35.20
2023-02-14T18:00:26.538Z,37.00
2023-02-14T18:02:56.548Z,49.70
2023-02-14T18:05:26.607Z,37.60
2023-02-14T18:07:56.536Z,43.30
2023-02-14T18:10:26.895Z,51.50
2023-02-14T18:12:59.497Z,43.30
2023-02-14T18:15:29.665Z,55.13
2023-02-14T18:17:59.618Z,38.50
2023-02-14T18:20:29.562Z,41.40
2023-02-14T18:22:59.486Z,40.30
2023-02-14T18:25:29.426Z,43.83
2023-02-14T18:28:02.035Z,52.63
2023-02-14T18:30:32.227Z,34.07
2023-02-14T18:33:02.146Z,40.33
2023-02-14T18:35:32.132Z,47.07
2023-02-14T18:38:02.103Z,42.27
2023-02-14T18:40:32.098Z,44.13
2023-02-14T18:43:05.119Z,47.47
2023-02-14T18:45:39.836Z,48.60
2023-02-14T18:48:09.941Z,43.30
2023-02-14T18:50:40.008Z,43.23
2023-02-14T18:53:09.982Z,43.30
2023-02-14T18:55:40.929Z,43.40
2023-02-14T18:58:13.691Z,49.60
2023-02-14T19:00:43.674Z,38.03
2023-02-14T19:03:13.631Z,38.50
2023-02-14T19:05:43.619Z,40.17
2023-02-14T19:08:13.587Z,44.20
2023-02-14T19:10:43.566Z,42.40
2023-02-14T19:13:16.083Z,38.00
2023-02-14T19:15:47.611Z,41.17
2023-02-14T19:18:17.712Z,47.90
2023-02-14T19:20:48.439Z,43.60
2023-02-14T19:23:21.388Z,39.73
2023-02-14T19:25:51.355Z,47.40
2023-02-14T19:28:24.356Z,51.10
2023-02-14T19:30:54.356Z,45.37
2023-02-14T19:33:24.436Z,48.63
2023-02-14T19:36:03.455Z,49.53
2023-02-14T19:38:33.519Z,50.43
2023-02-14T19:41:03.555Z,42.27
2023-02-14T19:43:36.156Z,48.77
2023-02-14T19:46:07.561Z,36.20
2023-02-14T19:48:37.636Z,43.60
2023-02-14T19:51:08.170Z,51.17
2023-02-14T19:53:38.469Z,44.00
2023-02-14T19:56:08.641Z,50.07
2023-02-14T19:58:43.753Z,50.20
2023-02-14T20:01:26.605Z,50.43
2023-02-14T20:03:57.301Z,58.80
2023-02-14T20:06:29.554Z,50.30
2023-02-14T20:09:00.415Z,50.50
2023-02-14T20:11:35.672Z,42.00
2023-02-14T20:14:09.686Z,44.70
2023-02-14T20:16:40.783Z,36.20
2023-02-14T20:19:16.284Z,58.50
2023-02-14T20:21:48.156Z,46.03
2023-02-14T20:24:21.246Z,48.87
2023-02-14T20:26:52.840Z,77.40
2023-02-14T20:29:27.357Z,55.97
2023-02-14T20:32:03.657Z,60.03
2023-02-14T20:34:33.962Z,56.50
2023-02-14T20:37:04.109Z,52.17
2023-02-14T20:39:37.263Z,63.70
2023-02-14T20:42:10.000Z,58.00
2023-02-14T20:44:42.846Z,50.10
2023-02-14T20:47:13.092Z,57.00
2023-02-14T20:49:44.780Z,61.17
2023-02-14T20:52:18.005Z,65.57
2023-02-14T20:54:48.018Z,62.47
2023-02-14T20:57:18.001Z,65.33
2023-02-14T20:59:50.660Z,51.07
2023-02-14T21:02:20.657Z,52.40
2023-02-14T21:04:50.585Z,56.20
2023-02-14T21:07:20.685Z,64.30
2023-02-14T21:09:50.668Z,51.07
2023-02-14T21:12:20.710Z,62.10
2023-02-14T21:14:53.508Z,55.60
2023-02-14T21:17:23.480Z,48.40
2023-02-14T21:19:53.420Z,60.37
2023-02-14T21:22:23.422Z,56.33
2023-02-14T21:24:53.548Z,58.20
2023-02-14T21:27:23.549Z,55.20
2023-02-14T21:29:56.173Z,46.70
2023-02-14T21:32:28.446Z,41.50
2023-02-14T21:34:58.702Z,46.63
2023-02-14T21:37:28.685Z,70.57
2023-02-14T21:39:58.602Z,50.10
2023-02-14T21:42:28.539Z,45.97
2023-02-14T21:45:13.615Z,44.30
2023-02-14T21:48:03.662Z,41.13
2023-02-14T21:50:31.047Z,37.30
2023-02-14T21:53:01.458Z,32.90
2023-02-14T21:55:31.469Z,37.73
2023-02-14T21:58:01.534Z,47.63
2023-02-14T22:00:34.238Z,34.97
2023-02-14T22:03:05.192Z,40.77
2023-02-14T22:05:35.206Z,46.33
2023-02-14T22:08:05.207Z,46.10
2023-02-14T22:10:35.223Z,41.53
2023-02-14T22:13:05.159Z,42.10
2023-02-14T22:15:40.161Z,38.80
2023-02-14T22:18:10.266Z,36.93
2023-02-14T22:20:40.330Z,45.67
2023-02-14T22:23:11.481Z,45.27
2023-02-14T22:25:41.417Z,33.27
2023-02-14T22:28:12.065Z,35.33
2023-02-14T22:30:44.748Z,43.23
2023-02-14T22:33:14.723Z,30.17
2023-02-14T22:35:44.830Z,34.90
2023-02-14T22:38:14.899Z,41.83
2023-02-14T22:40:44.935Z,33.63
2023-02-14T22:43:15.032Z,35.60
2023-02-14T22:45:47.919Z,52.37
2023-02-14T22:48:18.780Z,39.47
2023-02-14T22:50:48.799Z,38.77
2023-02-14T22:53:18.838Z,42.57
2023-02-14T22:55:48.824Z,35.63
2023-02-14T22:58:18.881Z,37.40
2023-02-14T23:00:51.476Z,40.73
2023-02-14T23:03:21.440Z,43.40
2023-02-14T23:05:51.449Z,35.10
2023-02-14T23:08:21.589Z,42.30
2023-02-14T23:10:51.617Z,40.43
2023-02-14T23:13:34.240Z,54.63
2023-02-14T23:16:19.577Z,48.97
2023-02-14T23:19:02.177Z,34.83
2023-02-14T23:21:44.675Z,49.97
2023-02-14T23:24:14.659Z,42.27
2023-02-14T23:26:44.725Z,46.10
2023-02-14T23:29:14.830Z,36.73
2023-02-14T23:31:47.689Z,37.97
2023-02-14T23:34:17.925Z,49.63
2023-02-14T23:36:48.604Z,42.40
2023-02-14T23:39:18.793Z,57.90
2023-02-14T23:41:51.796Z,41.87
2023-02-14T23:44:24.765Z,43.40
2023-02-14T23:47:00.508Z,48.57
2023-02-14T23:49:31.099Z,39.57
2023-02-14T23:52:01.602Z,40.23
2023-02-14T23:54:31.868Z,37.30
2023-02-14T23:57:02.044Z,48.13
2023-02-14T23:59:32.364Z,40.73
